Hinckley, Minnesota
Current Conditions -  °F | °C
As of 5:55 PM on Thursday 25 Dec 2014 (Local Time) from K04W Reporting Station
Overcast Overcast  
Wind Chill: 32°   Ceiling: 1500
Heat Index: 32°   Visibility: 7mi
Dew Point: 32°   Wind: 0mph
Humidity: 100%   Direction: NA
Pressure: 29.83"   Gusts: NA
Location:  46.01°N, 92.94°W
Report Text: K04W 252355Z AUTO 00000KT 7SM OVC015 00/00 A2983 RMK AO2
Loading
Personal Weather Stations






























Interactive Weather Map New forecast layout! Learn more

10-Day Weather Forecast

Advertisements
Track Severe Weather on mobile